Time;durP1;ratioP1;P1;durP2;ratioP2;P2;SDS_P1;SDS_P2;PMS_P1;PMS_P2;Temp;Humidity;BMP_temperature;BMP_pressure;BME280_temperature;BME280_humidity;BME280_pressure;Samples;Min_cycle;Max_cycle;Signal;HPM_P1;HPM_P2
2022/03/24 00:00:24;;;;;;;35.27;20.50;;;;;;;11.01;46.51;101745.13;5127362;27;20203;-64
2022/03/24 00:02:52;;;;;;;32.73;20.03;;;;;;;11.01;46.50;101739.81;5126715;27;20293;-64
2022/03/24 00:05:20;;;;;;;33.30;20.40;;;;;;;10.94;46.57;101745.59;5128586;27;20292;-65
2022/03/24 00:07:52;;;;;;;32.97;20.50;;;;;;;10.97;46.88;101735.72;5143033;27;20771;-64
2022/03/24 00:10:27;;;;;;;32.83;21.87;;;;;;;10.93;47.06;101738.59;5138625;27;20515;-65
2022/03/24 00:12:56;;;;;;;32.47;20.17;;;;;;;10.86;47.48;101742.72;5119636;27;20197;-65
2022/03/24 00:15:25;;;;;;;35.07;23.33;;;;;;;10.76;47.71;101744.38;5127406;27;20300;-64
2022/03/24 00:17:53;;;;;;;34.67;21.30;;;;;;;10.85;47.51;101741.00;5141204;27;20294;-65
2022/03/24 00:20:21;;;;;;;34.37;22.70;;;;;;;10.82;47.20;101741.25;5135297;27;20243;-66
2022/03/24 00:22:56;;;;;;;36.67;21.53;;;;;;;10.82;46.88;101745.69;5129620;27;20237;-64
2022/03/24 00:25:26;;;;;;;36.10;22.27;;;;;;;10.76;46.88;101735.56;5129835;27;20234;-66
2022/03/24 00:27:53;;;;;;;35.07;22.47;;;;;;;10.79;46.90;101738.00;5137908;27;20200;-66
2022/03/24 00:30:21;;;;;;;34.03;20.97;;;;;;;10.29;48.52;101747.16;5127380;28;20241;-65
2022/03/24 00:32:49;;;;;;;34.33;21.13;;;;;;;10.51;48.16;101745.41;5127732;27;20202;-65
2022/03/24 00:35:23;;;;;;;33.47;21.27;;;;;;;10.62;47.47;101739.31;5121714;28;20348;-63
2022/03/24 00:37:51;;;;;;;32.30;21.37;;;;;;;10.67;47.22;101738.94;5122201;28;20235;-64
2022/03/24 00:40:19;;;;;;;36.13;21.77;;;;;;;10.66;47.38;101743.38;5120700;28;20216;-65
2022/03/24 00:42:48;;;;;;;34.80;22.07;;;;;;;10.68;47.50;101738.81;5122116;27;20210;-65
2022/03/24 00:45:15;;;;;;;36.90;21.27;;;;;;;10.58;47.56;101743.13;5118299;27;20699;-64
2022/03/24 00:47:44;;;;;;;34.00;20.90;;;;;;;10.59;47.57;101733.38;5118432;28;20209;-64
2022/03/24 00:50:14;;;;;;;31.17;20.50;;;;;;;10.55;47.76;101733.59;5114044;28;20210;-64
2022/03/24 00:52:42;;;;;;;29.63;19.33;;;;;;;10.53;47.76;101730.25;5121258;28;20244;-65
2022/03/24 00:55:12;;;;;;;33.00;20.70;;;;;;;10.50;48.14;101724.31;5116408;27;20245;-64
2022/03/24 00:57:43;;;;;;;32.93;20.50;;;;;;;10.48;47.90;101731.53;5119300;28;20206;-66
2022/03/24 01:00:15;;;;;;;32.97;21.43;;;;;;;10.47;47.62;101729.84;5119379;28;20547;-64
2022/03/24 01:02:43;;;;;;;32.43;20.50;;;;;;;10.44;47.86;101730.09;5120527;27;20203;-66
2022/03/24 01:05:13;;;;;;;37.10;20.83;;;;;;;10.40;48.01;101725.97;5121076;27;20216;-65
2022/03/24 01:07:41;;;;;;;33.57;19.40;;;;;;;10.39;48.02;101726.94;5124326;27;20286;-63
2022/03/24 01:10:12;;;;;;;31.20;19.43;;;;;;;10.37;48.16;101726.22;5122616;27;20197;-64
2022/03/24 01:12:41;;;;;;;34.53;21.10;;;;;;;10.34;48.37;101713.19;5126341;27;20203;-65
2022/03/24 01:15:10;;;;;;;34.37;20.47;;;;;;;10.27;48.84;101718.13;5119516;27;20252;-65
2022/03/24 01:17:39;;;;;;;31.87;20.73;;;;;;;10.32;48.98;101717.75;5122633;27;20209;-65
2022/03/24 01:20:09;;;;;;;35.17;22.43;;;;;;;10.27;48.78;101718.13;5123479;27;20209;-63
2022/03/24 01:22:37;;;;;;;33.30;20.93;;;;;;;10.23;49.01;101713.16;5124289;27;20562;-66
2022/03/24 01:25:07;;;;;;;36.20;20.43;;;;;;;10.18;49.01;101714.34;5128254;27;20251;-65
2022/03/24 01:27:38;;;;;;;31.27;21.00;;;;;;;10.11;49.27;101712.25;5122076;27;20293;-65
2022/03/24 01:30:08;;;;;;;31.30;19.20;;;;;;;10.13;49.06;101708.50;5121892;27;20202;-64
2022/03/24 01:32:45;;;;;;;28.93;19.53;;;;;;;10.11;49.07;101713.06;5123479;27;20204;-64
2022/03/24 01:35:13;;;;;;;34.80;20.60;;;;;;;10.06;48.93;101704.63;5117924;27;20604;-63
2022/03/24 01:37:41;;;;;;;36.23;20.40;;;;;;;10.07;48.69;101708.97;5123740;27;20225;-63
2022/03/24 01:40:17;;;;;;;38.03;21.40;;;;;;;10.02;48.64;101703.19;5121285;27;20415;-64
2022/03/24 01:42:46;;;;;;;33.07;20.70;;;;;;;9.98;48.80;101695.56;5125364;27;20209;-65
2022/03/24 01:45:15;;;;;;;32.10;20.57;;;;;;;9.98;48.44;101698.22;5123563;27;20300;-64
2022/03/24 01:47:44;;;;;;;30.40;20.23;;;;;;;9.98;48.58;101695.56;5123023;27;20224;-64
2022/03/24 01:50:13;;;;;;;32.10;20.07;;;;;;;9.97;48.90;101693.88;5122603;27;20310;-64
2022/03/24 01:52:40;;;;;;;31.83;20.57;;;;;;;9.90;49.36;101693.47;5120250;27;21954;-64
2022/03/24 01:55:13;;;;;;;36.37;20.33;;;;;;;9.96;49.22;101697.47;5124211;27;20292;-64
2022/03/24 01:57:45;;;;;;;35.60;20.27;;;;;;;9.86;49.78;101686.72;5123830;27;20240;-64
2022/03/24 02:00:14;;;;;;;33.13;19.97;;;;;;;9.86;49.88;101692.00;5121795;27;20694;-64
2022/03/24 02:02:45;;;;;;;35.43;20.43;;;;;;;9.79;50.16;101696.06;5125369;27;20232;-64
2022/03/24 02:05:13;;;;;;;34.40;19.97;;;;;;;9.80;49.70;101695.97;5122443;27;20266;-65
2022/03/24 02:07:45;;;;;;;30.10;19.93;;;;;;;9.78;49.80;101697.88;5125812;27;20773;-64
2022/03/24 02:10:13;;;;;;;29.83;19.13;;;;;;;9.72;50.06;101700.16;5124354;27;20209;-64
2022/03/24 02:12:43;;;;;;;31.77;19.43;;;;;;;9.61;49.91;101686.84;5121476;27;20210;-64
2022/03/24 02:15:12;;;;;;;32.10;19.60;;;;;;;9.62;50.00;101691.19;5120021;27;20244;-64
2022/03/24 02:17:42;;;;;;;28.37;18.77;;;;;;;9.61;50.11;101690.31;5123142;27;20224;-64
2022/03/24 02:20:12;;;;;;;30.00;19.70;;;;;;;9.62;50.30;101692.03;5117157;27;20216;-64
2022/03/24 02:22:41;;;;;;;34.77;18.67;;;;;;;9.63;49.81;101690.22;5120153;27;20626;-63
2022/03/24 02:25:09;;;;;;;35.50;19.93;;;;;;;9.58;49.90;101692.38;5122662;27;20419;-63
2022/03/24 02:27:38;;;;;;;32.60;20.00;;;;;;;9.55;50.35;101693.44;5124318;27;20200;-63
2022/03/24 02:30:07;;;;;;;29.33;19.27;;;;;;;9.48;50.58;101686.91;5117479;27;20286;-63
2022/03/24 02:32:35;;;;;;;34.43;20.13;;;;;;;9.49;50.37;101687.75;5118084;27;20370;-63
2022/03/24 02:35:04;;;;;;;29.67;19.63;;;;;;;9.43;50.80;101697.81;5120331;27;20479;-63
2022/03/24 02:37:32;;;;;;;28.77;19.47;;;;;;;9.51;51.30;101696.41;5118159;27;20773;-64
2022/03/24 02:40:01;;;;;;;31.07;18.63;;;;;;;8.89;52.43;101688.50;5117888;27;20208;-63
2022/03/24 02:42:31;;;;;;;33.63;19.07;;;;;;;8.83;52.50;101695.09;5120648;27;20229;-62
2022/03/24 02:45:02;;;;;;;30.40;17.97;;;;;;;9.04;51.86;101698.03;5123168;27;20205;-63
2022/03/24 02:47:30;;;;;;;32.87;19.60;;;;;;;9.13;51.53;101697.38;5120880;27;20304;-64
2022/03/24 02:49:59;;;;;;;31.40;18.53;;;;;;;9.04;51.74;101704.16;5121185;27;20459;-65
2022/03/24 02:52:30;;;;;;;32.40;18.80;;;;;;;9.17;51.96;101698.84;5121181;27;20216;-63
2022/03/24 02:54:58;;;;;;;31.20;18.77;;;;;;;9.01;52.72;101699.09;5119069;27;20299;-62
2022/03/24 02:57:30;;;;;;;33.67;20.17;;;;;;;8.86;52.91;101697.53;5119592;27;20225;-64
2022/03/24 03:00:00;;;;;;;36.50;18.77;;;;;;;8.89;52.31;101696.44;5122013;27;20314;-64
2022/03/24 03:02:33;;;;;;;30.53;18.47;;;;;;;9.23;52.49;101697.56;5119268;27;20583;-64
2022/03/24 03:05:03;;;;;;;30.37;18.10;;;;;;;9.32;51.48;101692.44;5119220;27;20632;-64
2022/03/24 03:07:31;;;;;;;31.37;19.03;;;;;;;9.32;51.08;101703.03;5120133;27;20299;-63
2022/03/24 03:09:59;;;;;;;33.73;19.20;;;;;;;9.26;51.19;101703.47;5118237;27;20237;-64
2022/03/24 03:12:27;;;;;;;28.57;18.10;;;;;;;9.34;51.06;101706.41;5117554;27;20214;-64
2022/03/24 03:15:01;;;;;;;33.40;18.20;;;;;;;9.33;51.10;101701.22;5124737;27;20240;-63
2022/03/24 03:17:36;;;;;;;32.30;17.53;;;;;;;9.28;51.23;101706.88;5122982;27;20708;-63
2022/03/24 03:20:05;;;;;;;27.90;18.23;;;;;;;9.22;51.31;101717.06;5117412;27;20227;-63
2022/03/24 03:22:33;;;;;;;28.73;19.20;;;;;;;9.02;51.98;101710.50;5119082;27;20207;-63
2022/03/24 03:25:01;;;;;;;30.23;18.77;;;;;;;9.10;51.77;101716.09;5119860;27;20309;-63
2022/03/24 03:27:34;;;;;;;31.10;18.13;;;;;;;8.97;52.34;101723.22;5121969;27;20207;-63
2022/03/24 03:30:06;;;;;;;29.93;18.57;;;;;;;9.11;51.64;101722.25;5120475;27;20265;-65
2022/03/24 03:32:43;;;;;;;;;;;;;;;;;;;;;
2022/03/24 03:35:12;;;;;;;28.93;18.03;;;;;;;9.14;51.40;101722.03;5121981;27;20656;-63
2022/03/24 03:37:39;;;;;;;30.87;18.77;;;;;;;9.02;51.75;101721.09;5122140;27;20223;-63
2022/03/24 03:40:08;;;;;;;37.03;21.43;;;;;;;9.04;51.78;101717.41;5120874;27;20247;-62
2022/03/24 03:42:36;;;;;;;28.13;17.97;;;;;;;8.97;51.82;101725.88;5120810;27;20320;-63
2022/03/24 03:45:06;;;;;;;29.13;19.00;;;;;;;8.97;51.68;101724.06;5121753;27;20205;-63
2022/03/24 03:47:38;;;;;;;28.77;17.60;;;;;;;8.90;52.06;101716.66;5121194;27;20279;-62
2022/03/24 03:50:16;;;;;;;28.83;18.27;;;;;;;8.80;52.14;101727.03;5117990;27;20205;-63
2022/03/24 03:52:44;;;;;;;30.03;18.53;;;;;;;8.85;51.99;101727.56;5118000;27;20688;-64
2022/03/24 03:55:12;;;;;;;31.43;19.43;;;;;;;8.77;52.06;101726.41;5121673;27;20218;-63
2022/03/24 03:57:40;;;;;;;30.53;19.57;;;;;;;8.78;52.38;101723.66;5124323;27;20228;-63
2022/03/24 04:02:53;;;;;;;32.27;19.70;;;;;;;8.68;52.86;101723.44;5120336;27;20637;-64
2022/03/24 04:05:25;;;;;;;27.47;18.13;;;;;;;8.78;52.38;101722.81;5122410;27;20211;-64
2022/03/24 04:07:53;;;;;;;28.90;18.57;;;;;;;8.76;52.50;101724.72;5121325;27;20209;-63
2022/03/24 04:10:21;;;;;;;36.17;18.70;;;;;;;8.73;52.19;101722.28;5116337;27;20580;-64
2022/03/24 04:12:50;;;;;;;34.60;19.60;;;;;;;8.66;52.65;101725.34;5120766;27;20319;-64
2022/03/24 04:15:19;;;;;;;27.87;17.37;;;;;;;8.63;52.79;101720.25;5119757;27;20243;-64
2022/03/24 04:17:47;;;;;;;33.37;20.13;;;;;;;8.66;52.69;101729.78;5118652;27;20317;-63
2022/03/24 04:20:20;;;;;;;33.60;19.00;;;;;;;8.56;52.55;101724.28;5118152;27;20314;-63
2022/03/24 04:22:48;;;;;;;31.73;17.77;;;;;;;8.45;53.51;101723.31;5118035;27;20302;-63
2022/03/24 04:25:16;;;;;;;33.00;19.77;;;;;;;8.61;52.98;101722.19;5119605;27;20247;-63
2022/03/24 04:27:44;;;;;;;35.50;17.47;;;;;;;8.63;52.44;101719.41;5117735;28;20289;-64
2022/03/24 04:30:13;;;;;;;34.30;18.87;;;;;;;8.62;52.64;101718.56;5120166;28;20214;-63
2022/03/24 04:32:42;;;;;;;30.93;19.33;;;;;;;8.60;52.75;101715.19;5118383;28;20216;-63
2022/03/24 04:35:13;;;;;;;29.03;17.70;;;;;;;8.56;52.83;101724.28;5121315;27;20310;-63
2022/03/24 04:37:49;;;;;;;30.60;17.93;;;;;;;8.56;52.85;101724.28;5117749;27;20216;-63
2022/03/24 04:40:21;;;;;;;30.97;18.53;;;;;;;8.54;53.06;101722.69;5119037;27;20239;-63
2022/03/24 04:42:50;;;;;;;33.93;17.93;;;;;;;8.44;53.05;101725.13;5126800;27;20198;-64
2022/03/24 04:45:21;;;;;;;33.70;18.50;;;;;;;8.48;53.11;101723.09;5125472;27;20408;-64
2022/03/24 04:47:51;;;;;;;28.37;17.37;;;;;;;8.56;52.42;101729.56;5121407;27;20217;-64
2022/03/24 04:50:18;;;;;;;30.03;17.60;;;;;;;8.55;52.45;101732.31;5120919;27;20583;-64
2022/03/24 04:52:47;;;;;;;29.53;18.13;;;;;;;8.54;52.42;101731.47;5122706;27;20380;-64
2022/03/24 04:55:15;;;;;;;29.70;17.30;;;;;;;8.50;52.55;101729.13;5121530;27;20215;-64
2022/03/24 04:57:45;;;;;;;28.47;17.27;;;;;;;8.49;52.76;101728.28;5120476;27;20861;-64
2022/03/24 05:00:16;;;;;;;31.67;18.17;;;;;;;8.52;52.68;101741.31;5119154;27;20711;-64
2022/03/24 05:02:43;;;;;;;29.80;17.50;;;;;;;8.47;53.04;101738.13;5123450;27;20200;-64
2022/03/24 05:05:12;;;;;;;32.47;17.97;;;;;;;8.50;52.99;101745.00;5123824;27;20212;-64
2022/03/24 05:07:41;;;;;;;33.77;19.20;;;;;;;8.47;52.88;101738.13;5120190;27;20228;-64
2022/03/24 05:10:11;;;;;;;32.27;18.77;;;;;;;8.46;53.19;101738.22;5118090;27;20291;-64
2022/03/24 05:12:43;;;;;;;29.87;16.93;;;;;;;8.41;53.02;101743.84;5117330;27;20216;-64
2022/03/24 05:15:23;;;;;;;35.53;18.83;;;;;;;8.38;53.19;101741.38;5120080;27;20259;-64
2022/03/24 05:17:51;;;;;;;31.40;18.67;;;;;;;8.37;53.17;101744.13;5120228;27;20398;-64
2022/03/24 05:20:20;;;;;;;34.97;19.83;;;;;;;8.38;53.47;101745.81;5122047;27;20303;-64
2022/03/24 05:22:48;;;;;;;31.80;19.07;;;;;;;8.40;53.42;101743.94;5123671;27;20206;-64
2022/03/24 05:25:16;;;;;;;34.33;19.53;;;;;;;8.41;53.60;101751.75;5122739;27;20437;-64
2022/03/24 05:27:43;;;;;;;33.97;18.67;;;;;;;8.38;53.72;101741.38;5119621;27;20209;-64
2022/03/24 05:30:12;;;;;;;35.63;19.67;;;;;;;8.39;53.61;101748.38;5118861;27;20232;-64
2022/03/24 05:32:41;;;;;;;33.03;17.50;;;;;;;8.39;53.59;101748.38;5124384;27;20209;-63
2022/03/24 05:35:09;;;;;;;38.37;18.87;;;;;;;8.43;53.29;101749.03;5121301;27;20229;-63
2022/03/24 05:37:38;;;;;;;36.87;18.73;;;;;;;8.43;53.56;101749.03;5124250;27;20359;-63
2022/03/24 05:40:15;;;;;;;32.30;19.00;;;;;;;8.38;53.41;101751.97;5122610;27;20208;-63
2022/03/24 05:42:43;;;;;;;39.90;18.00;;;;;;;8.36;53.47;101748.56;5121057;27;20212;-62
2022/03/24 05:45:11;;;;;;;73.47;22.17;;;;;;;8.38;53.21;101746.66;5124500;27;20218;-63
2022/03/24 05:47:39;;;;;;;71.60;22.43;;;;;;;8.36;53.57;101753.00;5121829;27;20212;-64
2022/03/24 05:50:07;;;;;;;49.83;20.03;;;;;;;8.39;53.56;101750.16;5126089;27;20645;-63
2022/03/24 05:52:35;;;;;;;35.90;19.03;;;;;;;8.38;53.50;101751.97;5128635;27;20581;-64
2022/03/24 05:55:05;;;;;;;41.10;18.17;;;;;;;8.35;53.73;101751.34;5125363;27;20544;-63
2022/03/24 05:57:32;;;;;;;40.90;18.60;;;;;;;8.39;53.63;101743.06;5126323;27;20653;-64
2022/03/24 06:00:01;;;;;;;34.40;17.13;;;;;;;8.38;53.67;101748.47;5124703;27;20467;-63
2022/03/24 06:02:29;;;;;;;35.07;19.50;;;;;;;8.44;53.14;101746.28;5131173;27;20251;-63
2022/03/24 06:04:59;;;;;;;38.80;19.47;;;;;;;8.48;53.19;101758.31;5126004;27;20212;-63
2022/03/24 06:07:29;;;;;;;37.73;19.23;;;;;;;8.50;53.02;101755.59;5129096;27;20211;-63
2022/03/24 06:09:58;;;;;;;37.30;18.37;;;;;;;8.52;52.99;101761.63;5125770;27;20209;-63
2022/03/24 06:12:27;;;;;;;41.77;19.40;;;;;;;8.59;52.67;101757.59;5125728;27;20208;-63
2022/03/24 06:15:01;;;;;;;41.37;18.57;;;;;;;8.67;52.68;101758.78;5130431;27;20259;-64
2022/03/24 06:17:30;;;;;;;38.60;18.53;;;;;;;8.71;52.33;101758.56;5127607;27;20290;-64
2022/03/24 06:19:58;;;;;;;36.17;18.23;;;;;;;8.74;52.17;101766.28;5123648;27;20721;-62
2022/03/24 06:22:25;;;;;;;35.63;18.37;;;;;;;8.77;52.05;101766.94;5123439;27;20206;-64
2022/03/24 06:24:53;;;;;;;34.50;18.13;;;;;;;8.85;51.90;101761.09;5119378;27;20216;-64
2022/03/24 06:27:31;;;;;;;31.50;16.87;;;;;;;8.86;51.82;101765.44;5122705;27;20236;-65
2022/03/24 06:29:59;;;;;;;36.07;18.43;;;;;;;8.89;51.90;101767.88;5124243;27;20641;-64
2022/03/24 06:32:27;;;;;;;34.33;18.23;;;;;;;8.95;51.58;101759.53;5130368;27;20216;-63
2022/03/24 06:34:55;;;;;;;37.80;18.77;;;;;;;8.98;51.86;101769.88;5126286;27;20608;-64
2022/03/24 06:37:22;;;;;;;35.50;18.33;;;;;;;9.05;51.41;101781.75;5124486;27;20803;-63
2022/03/24 06:39:50;;;;;;;34.93;17.60;;;;;;;9.04;51.73;101767.69;5130058;27;20568;-62
2022/03/24 06:42:19;;;;;;;39.00;18.87;;;;;;;9.13;51.43;101771.47;5127535;27;20234;-63
2022/03/24 06:44:49;;;;;;;44.87;18.53;;;;;;;9.15;51.21;101771.38;5125123;27;20419;-64
2022/03/24 06:47:22;;;;;;;39.03;18.53;;;;;;;9.13;52.14;101775.91;5120918;27;20233;-64
2022/03/24 06:49:50;;;;;;;47.33;18.53;;;;;;;9.28;51.40;101778.34;5124560;27;20319;-63
2022/03/24 06:52:18;;;;;;;35.53;18.63;;;;;;;9.31;52.24;101769.34;5124557;27;20296;-64
2022/03/24 06:54:45;;;;;;;37.67;19.33;;;;;;;9.41;51.53;101781.78;5125668;27;20213;-63
2022/03/24 06:57:14;;;;;;;37.07;20.53;;;;;;;9.49;50.92;101777.78;5123803;27;20308;-64
2022/03/24 06:59:42;;;;;;;35.57;19.53;;;;;;;9.50;51.57;101780.28;5118320;27;20624;-63
2022/03/24 07:02:13;;;;;;;35.83;19.10;;;;;;;9.54;51.20;101783.56;5120837;27;20219;-65
2022/03/24 07:04:41;;;;;;;35.80;17.27;;;;;;;9.61;50.65;101776.88;5120723;27;20204;-64
2022/03/24 07:07:09;;;;;;;37.37;18.33;;;;;;;9.67;50.55;101781.75;5121059;27;20604;-65
2022/03/24 07:09:36;;;;;;;38.37;20.20;;;;;;;9.71;50.54;101784.06;5121459;27;20293;-64
2022/03/24 07:12:05;;;;;;;41.37;19.20;;;;;;;9.70;50.73;101786.81;5123847;27;20570;-64
2022/03/24 07:14:33;;;;;;;32.67;18.33;;;;;;;9.82;50.44;101780.63;5122146;27;20237;-64
2022/03/24 07:17:00;;;;;;;77.60;22.17;;;;;;;9.87;50.09;101783.78;5121032;27;20332;-64
2022/03/24 07:19:30;;;;;;;59.97;21.87;;;;;;;9.94;49.88;101777.06;5120372;27;20257;-64
2022/03/24 07:21:57;;;;;;;43.83;19.90;;;;;;;9.97;50.48;101778.66;5120141;27;20205;-64
2022/03/24 07:24:25;;;;;;;34.47;18.77;;;;;;;10.11;49.68;101778.50;5122908;27;20564;-64
2022/03/24 07:26:53;;;;;;;33.67;18.50;;;;;;;10.18;50.03;101780.63;5123495;27;20202;-64
2022/03/24 07:29:20;;;;;;;31.80;18.13;;;;;;;10.20;50.41;101790.28;5122080;27;20297;-63
2022/03/24 07:31:48;;;;;;;32.07;18.43;;;;;;;10.24;49.23;101786.41;5125025;27;20798;-62
2022/03/24 07:34:16;;;;;;;38.95;23.05;;;;;;;10.32;49.53;101782.22;5123661;27;20518;-64
2022/03/24 07:36:48;;;;;;;39.97;19.77;;;;;;;10.29;49.92;101789.59;5126667;27;20207;-64
2022/03/24 07:39:16;;;;;;;36.27;20.60;;;;;;;10.37;49.36;101789.88;5120847;27;20237;-63
2022/03/24 07:41:44;;;;;;;34.60;17.97;;;;;;;10.36;48.93;101790.81;5124034;27;20220;-64
2022/03/24 07:44:11;;;;;;;33.87;19.20;;;;;;;10.46;49.54;101786.53;5120665;27;20240;-63
2022/03/24 07:46:50;;;;;;;32.57;18.90;;;;;;;10.47;48.59;101785.53;5121398;27;20690;-64
2022/03/24 07:49:17;;;;;;;39.00;19.33;;;;;;;10.69;48.12;101780.31;5122489;27;20309;-65
2022/03/24 07:51:45;;;;;;;31.77;18.83;;;;;;;10.76;47.85;101783.31;5120999;27;20225;-63
2022/03/24 07:54:14;;;;;;;31.23;18.23;;;;;;;10.84;47.76;101789.75;5127709;27;20608;-64
2022/03/24 07:56:43;;;;;;;37.80;18.50;;;;;;;10.89;47.25;101784.09;5126585;27;20227;-64
2022/03/24 07:59:10;;;;;;;33.63;18.20;;;;;;;10.90;47.06;101786.63;5122064;27;20658;-65
2022/03/24 08:01:38;;;;;;;31.57;18.33;;;;;;;11.02;46.75;101783.97;5122282;27;20201;-64
2022/03/24 08:04:07;;;;;;;40.23;19.17;;;;;;;11.14;46.86;101793.66;5122909;27;20218;-65
2022/03/24 08:06:36;;;;;;;36.60;17.63;;;;;;;11.22;46.65;101791.25;5119305;27;20240;-65
2022/03/24 08:09:04;;;;;;;31.90;17.30;;;;;;;11.29;46.19;101793.28;5125609;27;20423;-65
2022/03/24 08:11:33;;;;;;;37.90;17.83;;;;;;;11.43;46.56;101792.22;5123572;27;20949;-65
2022/03/24 08:14:00;;;;;;;35.13;18.90;;;;;;;11.52;46.14;101794.09;5118194;27;20204;-64
2022/03/24 08:16:28;;;;;;;29.30;17.77;;;;;;;11.66;45.45;101796.53;5119277;27;20662;-65
2022/03/24 08:18:56;;;;;;;29.30;17.97;;;;;;;11.81;45.01;101793.63;5120998;27;20231;-64
2022/03/24 08:21:24;;;;;;;27.90;17.30;;;;;;;11.93;44.68;101787.31;5125547;27;20347;-65
2022/03/24 08:23:52;;;;;;;38.10;18.77;;;;;;;12.14;44.50;101784.72;5122440;27;20193;-64
2022/03/24 08:26:20;;;;;;;30.47;17.97;;;;;;;12.34;43.99;101798.06;5122821;27;20213;-65
2022/03/24 08:28:56;;;;;;;33.60;19.37;;;;;;;12.73;43.53;101799.19;5121670;27;20231;-64
2022/03/24 08:31:25;;;;;;;33.67;20.50;;;;;;;17.72;34.46;101794.19;5123575;28;20316;-64
2022/03/24 08:33:53;;;;;;;29.47;17.90;;;;;;;22.37;27.81;101793.72;5124119;28;20567;-64
2022/03/24 08:36:21;;;;;;;26.50;17.80;;;;;;;24.09;24.96;101794.78;5119433;28;20296;-65
2022/03/24 08:38:48;;;;;;;35.60;20.17;;;;;;;25.75;22.62;101783.59;5118202;28;20210;-65
2022/03/24 08:41:16;;;;;;;31.87;19.60;;;;;;;26.88;21.76;101788.03;5118335;28;20716;-65
2022/03/24 08:43:46;;;;;;;31.97;19.13;;;;;;;27.91;20.50;101793.56;5119727;28;20209;-65
2022/03/24 08:46:15;;;;;;;37.37;19.40;;;;;;;28.23;20.10;101793.38;5122878;27;20352;-65
2022/03/24 08:48:43;;;;;;;32.77;19.43;;;;;;;28.94;19.21;101786.97;5122050;27;20590;-65
2022/03/24 08:51:13;;;;;;;28.27;19.83;;;;;;;29.52;18.54;101787.72;5125420;27;20221;-64
2022/03/24 08:53:41;;;;;;;36.03;20.67;;;;;;;29.86;18.02;101785.09;5125108;28;20201;-65
2022/03/24 08:56:10;;;;;;;30.92;21.30;;;;;;;29.69;18.19;101784.22;5123380;28;20215;-64
2022/03/24 08:58:38;;;;;;;30.38;19.50;;;;;;;27.94;19.57;101789.56;5120487;28;20198;-64
2022/03/24 09:01:15;;;;;;;28.23;20.58;;;;;;;26.68;20.63;101792.81;5121156;28;20327;-65
2022/03/24 09:03:47;;;;;;;28.52;20.50;;;;;;;27.35;20.61;101793.88;5120111;27;20212;-64
2022/03/24 09:06:19;;;;;;;31.90;21.75;;;;;;;26.96;21.18;101795.09;5123085;27;20209;-65
2022/03/24 09:08:53;;;;;;;29.02;20.05;;;;;;;27.30;20.84;101791.81;5124789;27;20205;-65
2022/03/24 09:11:21;;;;;;;25.83;20.40;;;;;;;28.60;19.35;101792.13;5118734;27;20206;-64
2022/03/24 09:13:49;;;;;;;26.83;21.17;;;;;;;30.32;17.70;101788.69;5121990;27;20984;-65
2022/03/24 09:16:17;;;;;;;25.42;20.98;;;;;;;31.26;17.10;101785.00;5117567;27;20237;-66
2022/03/24 09:18:46;;;;;;;27.92;21.13;;;;;;;32.16;16.02;101789.09;5118971;28;20209;-66
2022/03/24 09:21:14;;;;;;;29.95;20.88;;;;;;;29.11;18.84;101787.91;5125050;27;20231;-64
2022/03/24 09:23:42;;;;;;;29.50;21.65;;;;;;;30.38;17.79;101784.97;5118823;27;20194;-67
2022/03/24 09:26:12;;;;;;;33.05;21.02;;;;;;;31.29;17.32;101778.19;5120028;27;20213;-65
2022/03/24 09:28:56;;;;;;;28.63;21.20;;;;;;;33.09;16.38;101776.59;5123162;27;20221;-65
2022/03/24 09:31:24;;;;;;;32.13;21.83;;;;;;;31.90;16.91;101768.78;5122860;27;20568;-66
2022/03/24 09:33:53;;;;;;;25.77;20.77;;;;;;;27.46;19.82;101784.06;5125934;27;20250;-66
2022/03/24 09:36:21;;;;;;;34.10;21.63;;;;;;;29.34;18.56;101773.34;5127795;27;20679;-65
2022/03/24 09:38:49;;;;;;;24.88;21.27;;;;;;;28.06;19.91;101784.97;5126934;27;20300;-65
2022/03/24 09:41:19;;;;;;;34.30;22.52;;;;;;;29.60;18.71;101781.03;5129015;27;20240;-66
2022/03/24 09:43:48;;;;;;;33.10;21.95;;;;;;;27.82;20.54;101777.78;5126294;27;20241;-66
2022/03/24 09:46:19;;;;;;;32.53;23.08;;;;;;;28.15;19.95;101788.19;5130105;27;20225;-66
2022/03/24 09:48:47;;;;;;;31.90;22.98;;;;;;;27.83;19.70;101776.72;5132734;27;20820;-67
2022/03/24 09:51:29;;;;;;;34.83;23.02;;;;;;;29.69;17.94;101778.75;5126971;27;20214;-67
2022/03/24 09:53:57;;;;;;;43.85;23.88;;;;;;;31.87;16.43;101772.03;5129882;27;20205;-67
2022/03/24 09:56:24;;;;;;;34.65;22.38;;;;;;;32.15;16.90;101776.41;5132230;27;20205;-66
2022/03/24 09:58:52;;;;;;;27.30;22.65;;;;;;;32.65;15.83;101778.78;5127614;27;21289;-65
2022/03/24 10:01:20;;;;;;;30.73;22.98;;;;;;;34.71;14.74;101765.97;5123826;27;20234;-66
2022/03/24 10:04:03;;;;;;;33.83;24.25;;;;;;;29.75;17.92;101773.13;5127845;27;20285;-67
2022/03/24 10:06:59;;;;;;;33.13;24.10;;;;;;;31.92;16.25;101771.25;5131576;27;20202;-64
2022/03/24 10:09:38;;;;;;;31.48;23.30;;;;;;;32.05;16.66;101773.56;5121830;27;20209;-64
2022/03/24 10:12:06;;;;;;;34.50;24.67;;;;;;;32.60;16.38;101769.69;5129197;27;20206;-67
2022/03/24 10:14:34;;;;;;;33.58;24.00;;;;;;;27.59;20.67;101779.34;5121555;27;20768;-61
2022/03/24 10:17:08;;;;;;;28.27;22.83;;;;;;;30.10;19.00;101781.19;5125326;27;20641;-62
2022/03/24 10:19:36;;;;;;;36.95;24.92;;;;;;;32.97;16.54;101773.25;5127185;27;20441;-61
2022/03/24 10:22:10;;;;;;;35.35;24.70;;;;;;;32.78;16.25;101764.63;5120458;27;21658;-61
2022/03/24 10:24:43;;;;;;;32.95;24.48;;;;;;;30.67;18.02;101765.50;5122204;27;20212;-64
2022/03/24 10:27:13;;;;;;;31.38;24.50;;;;;;;31.21;17.30;101764.94;5126673;27;20204;-65
2022/03/24 10:29:41;;;;;;;31.35;24.35;;;;;;;30.69;18.16;101764.44;5126518;27;20297;-65
2022/03/24 10:32:14;;;;;;;35.50;25.67;;;;;;;29.71;18.19;101762.94;5123954;27;20718;-65
2022/03/24 10:34:46;;;;;;;35.58;25.65;;;;;;;27.98;19.97;101766.22;5127207;27;20202;-65
2022/03/24 10:37:20;;;;;;;34.95;26.90;;;;;;;27.96;20.20;101761.03;5128342;27;20289;-66
2022/03/24 10:40:02;;;;;;;37.10;27.65;;;;;;;26.52;21.30;101755.28;5122925;27;20303;-65
2022/03/24 10:42:32;;;;;;;32.17;26.70;;;;;;;25.14;22.42;101764.16;5122377;27;20239;-63
2022/03/24 10:45:15;;;;;;;38.88;27.00;;;;;;;27.48;20.23;101761.00;5126464;27;20213;-63
2022/03/24 10:47:48;;;;;;;38.35;27.00;;;;;;;27.00;21.14;101757.41;5121209;27;20197;-65
2022/03/24 10:50:28;;;;;;;41.15;28.35;;;;;;;25.31;23.25;101757.22;5122916;27;20205;-65
2022/03/24 10:53:00;;;;;;;40.35;27.27;;;;;;;29.74;18.71;101751.50;5121489;27;20236;-66
2022/03/24 10:55:40;;;;;;;41.63;28.83;;;;;;;28.73;18.22;101750.97;5123585;27;20210;-63
2022/03/24 10:58:12;;;;;;;42.53;29.30;;;;;;;32.25;16.32;101745.53;5126646;27;20220;-66
2022/03/24 11:00:42;;;;;;;36.40;28.20;;;;;;;31.94;16.50;101741.63;5115528;27;20455;-66
2022/03/24 11:03:11;;;;;;;36.97;28.25;;;;;;;28.03;19.69;101752.72;5122185;27;20295;-66
2022/03/24 11:05:39;;;;;;;34.55;29.85;;;;;;;27.77;20.28;101753.94;5123011;27;20194;-66
2022/03/24 11:08:09;;;;;;;40.78;29.88;;;;;;;27.53;20.74;101752.97;5125164;27;20237;-65
2022/03/24 11:10:46;;;;;;;45.28;29.67;;;;;;;29.79;18.39;101740.69;5122362;27;20302;-66
2022/03/24 11:13:28;;;;;;;47.60;30.10;;;;;;;32.70;16.30;101736.84;5122321;27;20695;-65
2022/03/24 11:15:57;;;;;;;45.35;30.30;;;;;;;29.24;18.58;101735.72;5127716;27;20228;-64
2022/03/24 11:18:26;;;;;;;45.75;30.38;;;;;;;26.80;21.06;101741.22;5129153;27;20212;-65
2022/03/24 11:21:05;;;;;;;35.92;29.00;;;;;;;28.58;20.03;101738.88;5136391;27;20295;-65
2022/03/24 11:23:39;;;;;;;35.08;29.88;;;;;;;29.00;19.58;101729.50;5124355;27;20554;-64
2022/03/24 11:26:11;;;;;;;41.20;29.17;;;;;;;29.31;19.01;101730.94;5127145;27;20582;-65
2022/03/24 11:28:41;;;;;;;39.55;29.20;;;;;;;29.17;19.30;101732.31;5127215;27;20207;-66